Time,TemperatureF,DewpointF,PressureIn,WindDirection,WindDirectionDegrees,WindSpeedMPH,WindSpeedGustMPH,Humidity,HourlyPrecipIn,Conditions,Clouds,dailyrainin,SoftwareType,DateUTC
2013-03-12 01:32:00,55.0,55.0,29.94,NNW,338,0.0,0.0,100,0.00,,,1.21,,2013-03-12 05:32:00,
2013-03-12 01:42:00,55.0,55.0,29.94,NNW,338,0.0,0.0,100,0.00,,,1.21,,2013-03-12 05:42:00,
2013-03-12 01:52:00,55.0,55.0,29.93,NNW,338,0.0,0.0,100,0.00,,,1.30,,2013-03-12 05:52:00,
2013-03-12 02:02:00,55.0,55.0,29.92,NNW,338,0.0,0.0,100,0.00,,,1.34,,2013-03-12 06:02:00,
2013-03-12 02:12:00,55.0,55.0,29.92,NNW,338,0.0,0.0,100,0.00,,,1.34,,2013-03-12 06:12:00,
2013-03-12 02:22:00,55.0,55.0,29.92,NNW,338,0.0,0.0,100,0.00,,,1.38,,2013-03-12 06:22:00,
2013-03-12 02:32:00,55.0,55.0,29.91,NNW,338,0.0,0.0,100,0.00,,,1.44,,2013-03-12 06:32:00,
2013-03-12 02:42:00,55.0,55.0,29.91,NNW,338,0.0,0.0,100,0.00,,,1.44,,2013-03-12 06:42:00,
2013-03-12 02:52:00,55.0,55.0,29.91,NNW,338,0.0,0.0,100,0.00,,,1.47,,2013-03-12 06:52:00,
2013-03-12 03:02:00,54.0,54.0,29.91,NNW,338,0.0,0.0,100,0.00,,,1.51,,2013-03-12 07:02:00,
2013-03-12 03:12:00,54.0,54.0,29.91,NNW,338,0.0,0.0,100,0.00,,,1.51,,2013-03-12 07:12:00,
2013-03-12 03:22:00,54.0,54.0,29.91,NNW,338,0.0,0.0,100,0.00,,,1.54,,2013-03-12 07:22:00,
2013-03-12 03:32:00,54.0,54.0,29.90,NNW,338,0.0,0.0,100,0.00,,,1.57,,2013-03-12 07:32:00,
2013-03-12 03:42:00,54.0,54.0,29.90,NNW,338,0.0,0.0,100,0.00,,,1.57,,2013-03-12 07:42:00,
2013-03-12 03:52:00,54.0,54.0,29.89,NNW,338,0.0,0.0,100,0.00,,,1.59,,2013-03-12 07:52:00,
2013-03-12 04:02:00,54.0,54.0,29.88,NNW,338,0.0,0.0,100,0.00,,,1.61,,2013-03-12 08:02:00,
2013-03-12 04:13:00,54.0,54.0,29.88,NNW,338,0.0,0.0,100,0.00,,,1.61,,2013-03-12 08:13:00,
2013-03-12 04:22:00,54.0,54.0,29.88,NNW,338,0.0,0.0,100,0.00,,,1.63,,2013-03-12 08:22:00,
2013-03-12 04:33:00,54.0,54.0,29.88,NNW,338,0.0,0.0,100,0.00,,,1.64,,2013-03-12 08:33:00,
2013-03-12 04:42:00,54.0,54.0,29.88,NNW,338,0.0,0.0,100,0.00,,,1.64,,2013-03-12 08:42:00,
2013-03-12 04:52:00,54.0,54.0,29.88,NNW,338,0.0,0.0,100,0.00,,,1.64,,2013-03-12 08:52:00,
2013-03-12 05:03:00,54.0,54.0,29.88,NNW,338,0.0,0.0,100,0.00,,,1.64,,2013-03-12 09:03:00,
2013-03-12 05:12:00,54.0,54.0,29.88,NNW,338,0.0,0.0,100,0.00,,,1.64,,2013-03-12 09:12:00,
2013-03-12 05:22:00,54.0,54.0,29.88,NNW,338,0.0,0.0,100,0.00,,,1.65,,2013-03-12 09:22:00,
2013-03-12 05:32:00,54.0,54.0,29.88,NNW,338,0.0,0.0,100,0.00,,,1.65,,2013-03-12 09:32:00,
2013-03-12 05:42:00,54.0,54.0,29.88,NNW,338,0.0,0.0,100,0.00,,,1.65,,2013-03-12 09:42:00,
2013-03-12 05:52:00,55.0,55.0,29.88,NNW,338,0.0,0.0,100,0.00,,,1.65,,2013-03-12 09:52:00,
2013-03-12 06:02:00,53.0,53.0,29.89,WSW,256,5.0,6.0,100,0.00,,,1.65,,2013-03-12 10:02:00,
2013-03-12 06:12:00,53.0,53.0,29.89,WSW,256,5.0,6.0,100,0.00,,,1.65,,2013-03-12 10:12:00,
2013-03-12 06:22:00,52.0,52.0,29.89,WSW,253,6.0,8.0,100,0.00,,,1.65,,2013-03-12 10:22:00,
2013-03-12 06:32:00,51.0,51.0,29.90,WSW,246,5.0,7.0,99,0.00,,,1.65,,2013-03-12 10:32:00,
2013-03-12 06:42:00,51.0,51.0,29.90,WSW,246,5.0,7.0,99,0.00,,,1.65,,2013-03-12 10:42:00,
2013-03-12 06:52:00,51.0,51.0,29.90,WSW,248,5.0,7.0,99,0.00,,,1.65,,2013-03-12 10:52:00,
2013-03-12 07:02:00,50.0,49.0,29.91,SW,233,6.0,10.0,98,0.00,,,1.65,,2013-03-12 11:02:00,
2013-03-12 07:12:00,50.0,49.0,29.91,SW,233,6.0,10.0,98,0.00,,,1.65,,2013-03-12 11:12:00,
2013-03-12 07:22:00,49.0,48.0,29.92,WSW,253,4.0,8.0,97,0.00,,,1.65,,2013-03-12 11:22:00,
2013-03-12 07:32:00,49.0,48.0,29.92,WSW,250,5.0,6.0,97,0.00,,,1.65,,2013-03-12 11:32:00,
2013-03-12 07:42:00,49.0,48.0,29.92,WSW,250,5.0,6.0,97,0.00,,,1.65,,2013-03-12 11:42:00,
2013-03-12 07:52:00,49.0,48.0,29.92,WSW,238,5.0,8.0,96,0.00,,,1.65,,2013-03-12 11:52:00,
2013-03-12 08:02:00,48.0,47.0,29.93,WSW,246,5.0,7.0,97,0.00,,,1.65,,2013-03-12 12:02:00,
2013-03-12 08:12:00,48.0,47.0,29.93,WSW,246,5.0,7.0,97,0.00,,,1.65,,2013-03-12 12:12:00,
2013-03-12 08:22:00,48.0,47.0,29.93,WNW,300,3.0,6.0,96,0.00,,,1.65,,2013-03-12 12:22:00,
2013-03-12 08:32:00,48.0,47.0,29.94,SE,128,1.0,3.0,96,0.00,,,1.65,,2013-03-12 12:32:00,
2013-03-12 08:42:00,48.0,47.0,29.94,SE,128,1.0,3.0,96,0.00,,,1.65,,2013-03-12 12:42:00,
2013-03-12 08:52:00,48.0,47.0,29.95,SW,235,6.0,12.0,95,0.00,,,1.65,,2013-03-12 12:52:00,
2013-03-12 09:02:00,49.0,47.0,29.96,NNE,14,7.0,11.0,92,0.00,,,1.65,,2013-03-12 13:02:00,
2013-03-12 09:12:00,49.0,47.0,29.96,NNE,14,7.0,11.0,92,0.00,,,1.65,,2013-03-12 13:12:00,
2013-03-12 09:22:00,49.0,46.0,29.97,NW,314,7.0,15.0,91,0.00,,,1.65,,2013-03-12 13:22:00,
2013-03-12 09:32:00,49.0,45.0,29.98,North,353,7.0,12.0,87,0.00,,,1.65,,2013-03-12 13:32:00,
2013-03-12 09:42:00,49.0,45.0,29.98,North,353,7.0,12.0,87,0.00,,,1.65,,2013-03-12 13:42:00,
2013-03-12 09:52:00,50.0,45.0,29.98,ENE,66,6.0,11.0,84,0.00,,,1.65,,2013-03-12 13:52:00,
2013-03-12 10:02:00,50.0,46.0,29.98,West,281,7.0,15.0,85,0.00,,,1.65,,2013-03-12 14:02:00,
2013-03-12 10:12:00,50.0,46.0,29.98,West,281,7.0,15.0,85,0.00,,,1.65,,2013-03-12 14:12:00,
2013-03-12 10:22:00,50.0,44.0,29.98,NNE,23,7.0,16.0,81,0.00,,,1.65,,2013-03-12 14:22:00,
2013-03-12 10:33:00,51.0,45.0,29.99,North,11,5.0,9.0,80,0.00,,,1.65,,2013-03-12 14:33:00,
2013-03-12 10:42:00,51.0,45.0,29.99,North,11,5.0,9.0,80,0.00,,,1.65,,2013-03-12 14:42:00,
2013-03-12 10:53:00,53.0,46.0,29.99,ESE,107,5.0,11.0,78,0.00,,,1.65,,2013-03-12 14:53:00,
2013-03-12 11:02:00,53.0,46.0,30.00,SW,224,8.0,13.0,76,0.00,,,1.65,,2013-03-12 15:02:00,
2013-03-12 11:13:00,53.0,46.0,30.00,SW,224,8.0,13.0,76,0.00,,,1.65,,2013-03-12 15:13:00,
2013-03-12 11:22:00,54.0,47.0,30.00,SE,146,4.0,6.0,76,0.00,,,1.65,,2013-03-12 15:22:00,
2013-03-12 11:32:00,55.0,47.0,30.00,North,1,3.0,6.0,73,0.00,,,1.65,,2013-03-12 15:32:00,
2013-03-12 11:42:00,55.0,47.0,30.00,North,1,3.0,6.0,73,0.00,,,1.65,,2013-03-12 15:42:00,
2013-03-12 11:52:00,56.0,47.0,30.00,SW,219,4.0,9.0,71,0.00,,,1.65,,2013-03-12 15:52:00,
2013-03-12 12:02:00,57.0,45.0,30.00,NW,319,4.0,6.0,63,0.00,,,1.65,,2013-03-12 16:02:00,
2013-03-12 12:12:00,57.0,45.0,30.00,NW,319,4.0,6.0,63,0.00,,,1.65,,2013-03-12 16:12:00,
2013-03-12 12:22:00,57.0,46.0,30.00,North,356,5.0,7.0,67,0.00,,,1.65,,2013-03-12 16:22:00,
2013-03-12 12:33:00,58.0,43.0,29.99,East,86,2.0,3.0,58,0.00,,,1.65,,2013-03-12 16:33:00,
2013-03-12 12:43:00,58.0,43.0,29.99,East,86,2.0,3.0,58,0.00,,,1.65,,2013-03-12 16:43:00,
2013-03-12 12:52:00,59.0,46.0,30.00,NNE,23,2.0,4.0,61,0.00,,,1.65,,2013-03-12 16:52:00,
2013-03-12 13:03:00,59.0,44.0,30.00,West,263,6.0,10.0,57,0.00,,,1.65,,2013-03-12 17:03:00,
2013-03-12 13:13:00,59.0,44.0,30.00,West,263,6.0,10.0,57,0.00,,,1.65,,2013-03-12 17:13:00,
2013-03-12 13:22:00,60.0,44.0,30.00,NNW,346,4.0,7.0,55,0.00,,,1.65,,2013-03-12 17:22:00,
2013-03-12 13:34:00,61.0,44.0,30.01,North,3,3.0,8.0,54,0.00,,,1.65,,2013-03-12 17:34:00,
2013-03-12 13:43:00,61.0,44.0,30.01,North,3,3.0,8.0,54,0.00,,,1.65,,2013-03-12 17:43:00,
2013-03-12 13:53:00,60.0,43.0,30.01,NE,34,7.0,14.0,54,0.00,,,1.65,,2013-03-12 17:53:00,
2013-03-12 14:03:00,59.0,40.0,30.01,NE,49,8.0,15.0,49,0.00,,,1.65,,2013-03-12 18:03:00,
2013-03-12 14:13:00,60.0,40.0,30.00,NNE,31,11.0,18.0,47,0.00,,,1.65,,2013-03-12 18:13:00,
2013-03-12 14:23:00,60.0,40.0,30.00,NNE,31,11.0,18.0,47,0.00,,,1.65,,2013-03-12 18:23:00,
2013-03-12 14:33:00,61.0,41.0,30.01,North,6,2.0,4.0,48,0.00,,,1.65,,2013-03-12 18:33:00,
2013-03-12 14:42:00,61.0,41.0,30.01,North,6,2.0,4.0,48,0.00,,,1.65,,2013-03-12 18:42:00,
2013-03-12 14:53:00,62.0,40.0,30.01,West,263,3.0,5.0,45,0.00,,,1.65,,2013-03-12 18:53:00,
2013-03-12 15:03:00,62.0,40.0,30.01,NNE,24,5.0,9.0,45,0.00,,,1.65,,2013-03-12 19:03:00,
2013-03-12 15:13:00,62.0,40.0,30.01,NNE,24,5.0,9.0,45,0.00,,,1.65,,2013-03-12 19:13:00,
2013-03-12 15:23:00,62.0,37.0,30.01,NNW,347,6.0,8.0,40,0.00,,,1.65,,2013-03-12 19:23:00,
2013-03-12 15:33:00,64.0,37.0,30.01,North,0,8.0,11.0,37,0.00,,,1.65,,2013-03-12 19:33:00,
2013-03-12 15:43:00,64.0,37.0,30.01,North,0,8.0,11.0,37,0.00,,,1.65,,2013-03-12 19:43:00,
2013-03-12 15:53:00,63.0,36.0,30.00,East,80,9.0,12.0,37,0.00,,,1.65,,2013-03-12 19:53:00,
2013-03-12 16:02:00,62.0,37.0,30.01,NNE,17,10.0,16.0,40,0.00,,,1.65,,2013-03-12 20:02:00,
2013-03-12 16:12:00,62.0,37.0,30.01,NNE,17,10.0,16.0,40,0.00,,,1.65,,2013-03-12 20:12:00,
2013-03-12 16:23:00,60.0,38.0,30.01,North,349,6.0,10.0,44,0.00,,,1.65,,2013-03-12 20:23:00,
2013-03-12 16:32:00,62.0,39.0,30.01,North,356,4.0,6.0,42,0.00,,,1.65,,2013-03-12 20:32:00,
2013-03-12 16:42:00,62.0,39.0,30.01,North,356,4.0,6.0,42,0.00,,,1.65,,2013-03-12 20:42:00,
2013-03-12 16:53:00,62.0,40.0,30.01,WSW,257,6.0,10.0,44,0.00,,,1.65,,2013-03-12 20:53:00,
2013-03-12 17:02:00,62.0,39.0,30.01,North,349,8.0,11.0,42,0.00,,,1.65,,2013-03-12 21:02:00,
2013-03-12 17:13:00,62.0,39.0,30.01,North,349,8.0,11.0,42,0.00,,,1.65,,2013-03-12 21:13:00,
2013-03-12 17:22:00,63.0,38.0,30.01,North,354,5.0,10.0,40,0.00,,,1.65,,2013-03-12 21:22:00,
2013-03-12 17:33:00,62.0,37.0,30.00,NW,322,8.0,12.0,40,0.00,,,1.65,,2013-03-12 21:33:00,
2013-03-12 17:43:00,62.0,37.0,30.00,NW,322,8.0,12.0,40,0.00,,,1.65,,2013-03-12 21:43:00,
2013-03-12 17:52:00,61.0,35.0,30.00,NNW,343,4.0,7.0,37,0.00,,,1.65,,2013-03-12 21:52:00,
2013-03-12 18:02:00,61.0,35.0,30.00,NNW,346,7.0,10.0,38,0.00,,,1.65,,2013-03-12 22:02:00,
2013-03-12 18:12:00,61.0,35.0,30.00,NNW,346,7.0,10.0,38,0.00,,,1.65,,2013-03-12 22:12:00,
2013-03-12 18:22:00,60.0,34.0,30.01,WSW,253,7.0,12.0,37,0.00,,,1.65,,2013-03-12 22:22:00,
2013-03-12 18:33:00,60.0,36.0,30.01,North,6,4.0,11.0,40,0.00,,,1.63,,2013-03-12 22:33:00,
2013-03-12 18:43:00,60.0,36.0,30.01,North,6,4.0,11.0,40,0.00,,,1.63,,2013-03-12 22:43:00,
2013-03-12 18:52:00,58.0,35.0,30.03,NE,39,6.0,13.0,42,0.00,,,1.61,,2013-03-12 22:52:00,
2013-03-12 19:02:00,57.0,34.0,30.03,NW,321,6.0,9.0,42,0.00,,,1.59,,2013-03-12 23:02:00,
2013-03-12 19:12:00,57.0,34.0,30.03,NW,321,6.0,9.0,42,0.00,,,1.59,,2013-03-12 23:12:00,
2013-03-12 19:22:00,57.0,35.0,30.04,NE,42,3.0,6.0,43,0.00,,,1.59,,2013-03-12 23:22:00,
2013-03-12 19:34:00,56.0,34.0,30.04,North,10,8.0,15.0,43,0.00,,,1.59,,2013-03-12 23:34:00,
2013-03-12 19:43:00,56.0,34.0,30.04,North,10,8.0,15.0,43,0.00,,,1.59,,2013-03-12 23:43:00,
2013-03-12 19:52:00,55.0,33.0,30.05,NNE,17,7.0,10.0,44,0.00,,,1.56,,2013-03-12 23:52:00,
2013-03-12 20:03:00,55.0,33.0,30.05,NE,38,6.0,11.0,43,0.00,,,1.53,,2013-03-13 00:03:00,
2013-03-12 20:13:00,55.0,33.0,30.05,NE,38,6.0,11.0,43,0.00,,,1.53,,2013-03-13 00:13:00,
2013-03-12 20:23:00,54.0,33.0,30.06,NNW,338,9.0,17.0,44,0.00,,,1.45,,2013-03-13 00:23:00,
2013-03-12 20:33:00,53.0,32.0,30.07,North,356,5.0,9.0,45,0.00,,,1.40,,2013-03-13 00:33:00,
2013-03-12 20:42:00,53.0,32.0,30.07,North,356,5.0,9.0,45,0.00,,,1.40,,2013-03-13 00:42:00,
2013-03-12 20:53:00,53.0,33.0,30.07,NNW,347,4.0,8.0,46,0.00,,,1.35,,2013-03-13 00:53:00,
2013-03-12 21:03:00,52.0,32.0,30.07,NNE,17,8.0,13.0,47,0.00,,,1.29,,2013-03-13 01:03:00,
2013-03-12 21:13:00,52.0,32.0,30.07,NNE,17,8.0,13.0,47,0.00,,,1.29,,2013-03-13 01:13:00,
2013-03-12 21:22:00,52.0,32.0,30.08,NW,309,9.0,13.0,47,0.00,,,1.24,,2013-03-13 01:22:00,
2013-03-12 21:32:00,52.0,33.0,30.08,North,354,7.0,15.0,48,0.00,,,1.21,,2013-03-13 01:32:00,
2013-03-12 21:42:00,52.0,33.0,30.08,North,354,7.0,15.0,48,0.00,,,1.21,,2013-03-13 01:42:00,
2013-03-12 21:52:00,52.0,32.0,30.08,NNE,32,7.0,12.0,47,0.00,,,1.13,,2013-03-13 01:52:00,
2013-03-12 22:02:00,51.0,33.0,30.09,NNE,24,10.0,15.0,50,0.00,,,1.05,,2013-03-13 02:02:00,
2013-03-12 22:12:00,51.0,33.0,30.09,NNE,24,10.0,15.0,50,0.00,,,1.05,,2013-03-13 02:12:00,
2013-03-12 22:22:00,50.0,34.0,30.11,NW,304,10.0,15.0,53,0.00,,,0.99,,2013-03-13 02:22:00,
2013-03-12 22:32:00,50.0,35.0,30.11,North,1,8.0,11.0,56,0.00,,,0.95,,2013-03-13 02:32:00,
2013-03-12 22:43:00,50.0,35.0,30.11,North,1,8.0,11.0,56,0.00,,,0.95,,2013-03-13 02:43:00,
2013-03-12 22:52:00,49.0,35.0,30.13,WNW,297,5.0,7.0,58,0.00,,,0.89,,2013-03-13 02:52:00,
2013-03-12 23:02:00,49.0,35.0,30.12,North,1,4.0,6.0,59,0.00,,,0.85,,2013-03-13 03:02:00,
2013-03-12 23:13:00,49.0,35.0,30.12,North,1,4.0,6.0,59,0.00,,,0.85,,2013-03-13 03:13:00,
2013-03-12 23:22:00,49.0,34.0,30.12,North,357,5.0,8.0,56,0.00,,,0.80,,2013-03-13 03:22:00,
2013-03-12 23:32:00,49.0,34.0,30.11,NNE,31,8.0,10.0,55,0.00,,,0.78,,2013-03-13 03:32:00,
2013-03-12 23:42:00,49.0,34.0,30.11,NNE,31,8.0,10.0,55,0.00,,,0.78,,2013-03-13 03:42:00,
2013-03-12 23:53:00,49.0,33.0,30.11,North,0,9.0,15.0,53,0.00,,,0.72,,2013-03-13 03:53:00,